Time;durP1;ratioP1;P1;durP2;ratioP2;P2;SDS_P1;SDS_P2;PMS_P1;PMS_P2;Temp;Humidity;BMP_temperature;BMP_pressure;BME280_temperature;BME280_humidity;BME280_pressure;Samples;Min_cycle;Max_cycle;Signal;HPM_P1;HPM_P2
2024/01/31 00:00:19;;;;;;;;;122.00;90.67;;;;;-2.02;100.00;101587.50;6275704;20;3690974;-50
2024/01/31 00:02:49;;;;;;;;;121.00;98.67;;;;;-2.09;100.00;101584.69;6273958;20;3709330;-49
2024/01/31 00:05:18;;;;;;;;;119.33;85.33;;;;;-2.28;100.00;101589.56;6276431;20;3684679;-50
2024/01/31 00:07:49;;;;;;;;;121.00;91.67;;;;;-2.31;100.00;101573.72;6275082;20;3680544;-48
2024/01/31 00:10:18;;;;;;;;;116.67;84.33;;;;;-2.77;100.00;101571.81;6275405;20;3695153;-48
2024/01/31 00:12:48;;;;;;;;;122.00;94.00;;;;;-2.43;100.00;101574.34;6271760;20;3686734;-48
2024/01/31 00:15:18;;;;;;;;;116.00;81.67;;;;;-2.48;100.00;101575.09;6274537;20;3693962;-48
2024/01/31 00:17:48;;;;;;;;;113.33;78.00;;;;;-2.30;100.00;101574.63;6272594;20;3692953;-51
2024/01/31 00:20:17;;;;;;;;;108.00;82.33;;;;;-2.28;100.00;101572.91;6274623;20;3671330;-52
2024/01/31 00:22:47;;;;;;;;;126.33;106.00;;;;;-2.18;100.00;101581.91;6308825;20;3705978;-50
2024/01/31 00:25:17;;;;;;;;;118.67;90.67;;;;;-2.63;100.00;101582.63;6274931;20;3698426;-48
2024/01/31 00:27:47;;;;;;;;;125.67;91.33;;;;;-2.25;100.00;101576.47;6274244;20;3688807;-49
2024/01/31 00:30:17;;;;;;;;;131.00;90.00;;;;;-2.67;100.00;101579.06;6308955;20;3699673;-52
2024/01/31 00:32:46;;;;;;;;;118.67;97.00;;;;;-2.54;100.00;101575.84;6276520;20;3691998;-50
2024/01/31 00:35:16;;;;;;;;;118.00;87.00;;;;;-2.51;100.00;101581.16;6308741;20;3694021;-51
2024/01/31 00:37:46;;;;;;;;;117.33;85.67;;;;;-2.52;100.00;101584.66;6272490;20;3679520;-49
2024/01/31 00:40:16;;;;;;;;;108.00;77.33;;;;;-2.43;100.00;101571.72;6272173;20;3671129;-50
2024/01/31 00:42:46;;;;;;;;;112.67;84.00;;;;;-2.47;100.00;101575.13;6306975;20;3681494;-52
2024/01/31 00:45:15;;;;;;;;;116.67;88.00;;;;;-2.71;100.00;101566.72;6273118;20;3695066;-52
2024/01/31 00:47:45;;;;;;;;;121.67;75.67;;;;;-2.55;100.00;101566.19;6273400;20;3688844;-51
2024/01/31 00:50:15;;;;;;;;;118.33;86.67;;;;;-2.75;100.00;101567.47;6273498;20;3676351;-53
2024/01/31 00:52:45;;;;;;;;;123.67;85.00;;;;;-2.50;100.00;101567.19;6272853;20;3692988;-49
2024/01/31 00:55:15;;;;;;;;;114.67;80.00;;;;;-2.65;100.00;101561.59;6275347;20;3684652;-51
2024/01/31 00:57:46;;;;;;;;;109.00;76.67;;;;;-2.82;100.00;101557.66;6275012;20;3686770;-49
2024/01/31 01:00:17;;;;;;;;;108.33;79.00;;;;;-2.77;100.00;101551.66;6272802;20;3684779;-49
2024/01/31 01:02:47;;;;;;;;;109.67;81.00;;;;;-2.78;100.00;101556.91;6268379;20;3683582;-51
2024/01/31 01:05:17;;;;;;;;;113.67;77.67;;;;;-2.66;100.00;101551.91;6271089;20;3684767;-52
2024/01/31 01:07:47;;;;;;;;;109.33;76.67;;;;;-2.59;100.00;101551.19;6303844;20;3678410;-49
2024/01/31 01:10:16;;;;;;;;;108.67;75.00;;;;;-2.94;100.00;101548.66;6306916;20;3689908;-50
2024/01/31 01:12:45;;;;;;;;;107.00;74.33;;;;;-3.03;100.00;101547.53;6267722;20;3682610;-51
2024/01/31 01:15:18;;;;;;;;;100.67;72.00;;;;;-2.69;100.00;101549.22;6305555;20;3684780;-50
2024/01/31 01:17:48;;;;;;;;;100.67;73.00;;;;;-2.60;100.00;101546.81;6305198;20;3669000;-49
2024/01/31 01:20:18;;;;;;;;;99.33;72.67;;;;;-3.01;100.00;101546.72;6305502;20;3655434;-50
2024/01/31 01:22:48;;;;;;;;;110.33;76.00;;;;;-2.69;100.00;101555.34;6305925;20;3686664;-50
2024/01/31 01:25:18;;;;;;;;;108.33;75.33;;;;;-2.63;100.00;101552.00;6270228;20;3686707;-51
2024/01/31 01:27:50;;;;;;;;;102.33;70.67;;;;;-2.81;100.00;101543.69;6302436;20;3662728;-52
2024/01/31 01:30:22;;;;;;;;;104.00;73.00;;;;;-3.23;100.00;101539.19;6305320;20;3679503;-51
2024/01/31 01:32:51;;;;;;;;;93.00;67.00;;;;;-3.06;100.00;101540.47;6272226;20;3541950;-51
2024/01/31 01:35:21;;;;;;;;;110.33;75.00;;;;;-2.83;100.00;101537.50;6303460;20;3680512;-53
2024/01/31 01:37:51;;;;;;;;;100.00;70.67;;;;;-3.22;100.00;101541.84;6306619;20;3660747;-52
2024/01/31 01:40:20;;;;;;;;;92.33;64.33;;;;;-3.14;100.00;101539.41;6302673;20;2906574;-49
2024/01/31 01:42:50;;;;;;;;;97.33;69.67;;;;;-3.03;100.00;101544.91;6303933;20;3662183;-48
2024/01/31 01:45:20;;;;;;;;;98.33;67.67;;;;;-3.16;100.00;101536.75;6303900;20;3652324;-49
2024/01/31 01:47:52;;;;;;;;;94.00;64.67;;;;;-2.96;100.00;101529.34;6304991;20;3662891;-51
2024/01/31 01:50:24;;;;;;;;;99.67;67.67;;;;;-2.74;100.00;101529.81;6300956;20;3656498;-50
2024/01/31 01:52:53;;;;;;;;;112.33;76.00;;;;;-2.89;100.00;101528.63;6303047;20;3688887;-47
2024/01/31 01:55:23;;;;;;;;;93.00;66.00;;;;;-3.05;100.00;101528.22;6268831;20;3659640;-50
2024/01/31 01:57:52;;;;;;;;;93.33;69.00;;;;;-3.00;100.00;101523.97;6304238;20;3658574;-51
2024/01/31 02:00:27;;;;;;;;;96.00;67.00;;;;;-3.17;100.00;101520.94;6300778;20;3656594;-50
2024/01/31 02:02:57;;;;;;;;;91.67;69.67;;;;;-3.05;100.00;101518.63;6301523;20;3656528;-53
2024/01/31 02:05:27;;;;;;;;;87.50;61.00;;;;;-3.09;100.00;101519.38;6301090;20;2879580;-51
2024/01/31 02:07:57;;;;;;;;;93.00;67.00;;;;;-3.19;100.00;101526.16;6268583;20;3651535;-51
2024/01/31 02:10:27;;;;;;;;;88.67;66.00;;;;;-3.23;100.00;101518.19;6303295;20;3659657;-51
2024/01/31 02:12:57;;;;;;;;;93.33;67.00;;;;;-3.16;100.00;101509.59;6302711;20;2910832;-53
2024/01/31 02:15:26;;;;;;;;;91.00;67.00;;;;;-3.25;100.00;101510.25;6303440;20;2851386;-49
2024/01/31 02:17:55;;;;;;;;;102.00;65.67;;;;;-3.34;100.00;101504.81;6273139;20;3664907;-49
2024/01/31 02:20:25;;;;;;;;;88.00;66.00;;;;;-3.16;100.00;101493.81;6302456;20;3649477;-49
2024/01/31 02:22:56;;;;;;;;;87.00;63.67;;;;;-3.21;100.00;101495.44;6303724;20;3651364;-51
2024/01/31 02:25:26;;;;;;;;;93.67;68.67;;;;;-3.24;100.00;101495.38;6304242;20;3653526;-53
2024/01/31 02:27:57;;;;;;;;;92.33;66.00;;;;;-3.08;100.00;101497.53;6307841;20;3659696;-52
2024/01/31 02:30:27;;;;;;;;;93.00;66.00;;;;;-3.39;100.00;101499.44;6310994;20;3661754;-49
2024/01/31 02:32:56;;;;;;;;;96.67;71.33;;;;;-3.05;100.00;101492.34;6308634;20;3655615;-52
2024/01/31 02:35:26;;;;;;;;;72.67;49.67;;;;;-2.88;100.00;101487.47;6309434;20;3644205;-50
2024/01/31 02:37:57;;;;;;;;;91.00;63.33;;;;;-3.10;100.00;101489.59;6307853;20;3666961;-51
2024/01/31 02:40:29;;;;;;;;;88.67;65.33;;;;;-3.27;100.00;101480.44;6305950;20;3655578;-49
2024/01/31 02:42:59;;;;;;;;;89.33;60.33;;;;;-2.98;100.00;101483.72;6305803;20;2901469;-53
2024/01/31 02:45:29;;;;;;;;;100.00;67.00;;;;;-3.12;100.00;101485.16;6308871;20;3672148;-49
2024/01/31 02:47:59;;;;;;;;;99.33;67.33;;;;;-2.89;100.00;101486.59;6310746;20;3660673;-49
2024/01/31 02:50:30;;;;;;;;;91.33;67.33;;;;;-3.01;100.00;101483.66;6311427;20;2902572;-50
2024/01/31 02:53:00;;;;;;;;;99.50;68.00;;;;;-3.05;100.00;101492.34;6309021;20;2614883;-47
2024/01/31 02:55:29;;;;;;;;;85.00;63.50;;;;;-3.10;100.00;101492.25;6309981;20;2891955;-51
2024/01/31 02:57:57;;;;;;;;;79.50;58.00;;;;;-2.93;100.00;101487.34;6272223;20;2489929;-48
2024/01/31 03:00:27;;;;;;;;;93.00;68.33;;;;;-3.31;100.00;101486.47;6275810;20;3661775;-54
2024/01/31 03:02:57;;;;;;;;;90.67;63.00;;;;;-2.93;100.00;101484.72;6302509;20;3656538;-54
2024/01/31 03:05:26;;;;;;;;;96.33;64.00;;;;;-3.13;100.00;101492.16;6304933;20;3659670;-52
2024/01/31 03:07:56;;;;;;;;;88.67;64.00;;;;;-3.00;100.00;101495.97;6305387;20;3666013;-53
2024/01/31 03:10:26;;;;;;;;;105.00;71.33;;;;;-3.63;100.00;101493.59;6305935;20;3669038;-48
2024/01/31 03:12:55;;;;;;;;;101.33;63.33;;;;;-3.35;100.00;101480.25;6306576;20;3679475;-52
2024/01/31 03:15:25;;;;;;;;;98.33;63.33;;;;;-3.50;100.00;101482.53;6309384;20;3674669;-51
2024/01/31 03:17:55;;;;;;;;;84.67;61.67;;;;;-3.18;100.00;101483.28;6309150;20;3642973;-51
2024/01/31 03:20:25;;;;;;;;;88.67;65.33;;;;;-3.26;100.00;101479.59;6308000;20;3646108;-49
2024/01/31 03:22:54;;;;;;;;;99.00;64.67;;;;;-3.49;100.00;101483.41;6305118;20;3663800;-52
2024/01/31 03:25:24;;;;;;;;;85.67;61.00;;;;;-3.61;100.00;101481.34;6309383;20;3652366;-50
2024/01/31 03:27:54;;;;;;;;;89.33;60.67;;;;;-3.32;100.00;101482.97;6308867;20;3666950;-49
2024/01/31 03:30:23;;;;;;;;;88.33;60.33;;;;;-3.60;100.00;101484.03;6309945;20;2900346;-48
2024/01/31 03:32:52;;;;;;;;;80.00;56.33;;;;;-3.55;100.00;101489.41;6304123;20;2886733;-45
2024/01/31 03:35:23;;;;;;;;;89.00;60.00;;;;;-3.60;100.00;101485.78;6306473;20;3654428;-47
2024/01/31 03:37:51;;;;;;;;;78.50;59.00;;;;;-3.41;100.00;101485.38;6307107;20;2877439;-47
2024/01/31 03:40:21;;;;;;;;;91.33;62.33;;;;;-3.63;100.00;101489.22;6276844;20;3655481;-45
2024/01/31 03:42:51;;;;;;;;;92.33;64.00;;;;;-3.69;100.00;101486.41;6307575;20;3655979;-45
2024/01/31 03:45:20;;;;;;;;;86.00;58.00;;;;;-3.61;100.00;101489.22;6308072;20;2887863;-44
2024/01/31 03:47:51;;;;;;;;;87.00;62.33;;;;;-3.55;100.00;101479.78;6275946;20;3654420;-48
2024/01/31 03:50:20;;;;;;;;;96.00;66.67;;;;;-3.49;100.00;101478.16;6307600;20;3657646;-47
2024/01/31 03:52:50;;;;;;;;;100.33;68.33;;;;;-3.33;100.00;101478.56;6306790;20;3679411;-46
2024/01/31 03:55:19;;;;;;;;;82.00;60.00;;;;;-3.78;100.00;101471.31;6304332;20;2892118;-45
2024/01/31 03:57:49;;;;;;;;;129.33;75.67;;;;;-3.26;100.00;101470.84;6275172;20;3682597;-47
2024/01/31 04:00:19;;;;;;;;;94.00;66.00;;;;;-3.47;100.00;101477.34;6274054;20;3658315;-46
2024/01/31 04:02:48;;;;;;;;;97.67;68.33;;;;;-3.27;100.00;101472.56;6303898;20;3658622;-46
2024/01/31 04:05:18;;;;;;;;;98.33;67.00;;;;;-3.21;100.00;101480.59;6308403;20;3656783;-46
2024/01/31 04:07:48;;;;;;;;;91.00;66.00;;;;;-3.78;100.00;101481.81;6303932;20;3661164;-47
2024/01/31 04:10:18;;;;;;;;;99.67;66.33;;;;;-3.19;100.00;101488.50;6308064;20;3672247;-46
2024/01/31 04:12:48;;;;;;;;;94.33;64.67;;;;;-3.34;100.00;101484.66;6273429;20;2913003;-46
2024/01/31 04:15:18;;;;;;;;;79.67;57.67;;;;;-3.23;100.00;101481.41;6305869;20;3636751;-50
2024/01/31 04:17:48;;;;;;;;;91.33;67.33;;;;;-4.20;100.00;101486.81;6306586;20;3645099;-50
2024/01/31 04:20:17;;;;;;;;;93.67;63.33;;;;;-3.93;100.00;101476.16;6304529;20;3666979;-48
2024/01/31 04:22:47;;;;;;;;;90.50;62.00;;;;;-3.63;100.00;101490.94;6302603;20;3650315;-50
2024/01/31 04:25:17;;;;;;;;;97.00;63.33;;;;;-3.55;100.00;101487.66;6308037;20;3661872;-49
2024/01/31 04:27:47;;;;;;;;;92.00;63.50;;;;;-3.92;100.00;101488.47;6268053;20;3660820;-46
2024/01/31 04:30:18;;;;;;;;;88.33;64.67;;;;;-3.54;100.00;101497.31;6306991;20;2901466;-47
2024/01/31 04:32:47;;;;;;;;;98.33;66.33;;;;;-3.60;100.00;101501.53;6306551;20;3658605;-48
2024/01/31 04:35:16;;;;;;;;;80.00;60.50;;;;;-3.67;100.00;101497.84;6305794;20;2875309;-47
2024/01/31 04:37:47;;;;;;;;;102.00;68.33;;;;;-3.66;100.00;101496.09;6275432;20;3679446;-49
2024/01/31 04:40:16;;;;;;;;;69.00;54.00;;;;;-3.63;100.00;101506.69;6270388;20;2505575;-46
2024/01/31 04:42:46;;;;;;;;;84.00;60.00;;;;;-3.49;100.00;101502.66;6276130;20;2882572;-46
2024/01/31 04:45:20;;;;;;;;;92.33;67.67;;;;;-3.66;100.00;101501.34;6274445;20;3650342;-48
2024/01/31 04:47:49;;;;;;;;;78.50;60.00;;;;;-3.58;100.00;101502.44;6307742;20;2871164;-46
2024/01/31 04:50:19;;;;;;;;;88.33;61.67;;;;;-3.51;100.00;101503.47;6275010;20;2904595;-47
2024/01/31 04:52:48;;;;;;;;;74.33;46.67;;;;;-3.81;100.00;101500.13;6305897;20;3649324;-46
2024/01/31 04:55:18;;;;;;;;;85.67;61.33;;;;;-3.68;100.00;101495.19;6303614;20;2906599;-50
2024/01/31 04:57:47;;;;;;;;;81.50;63.00;;;;;-3.60;100.00;101485.78;6308496;20;2887804;-49
2024/01/31 05:00:17;;;;;;;;;84.00;63.50;;;;;-4.01;100.00;101490.81;6273730;20;2889969;-49
2024/01/31 05:02:46;;;;;;;;;80.00;57.33;;;;;-4.05;100.00;101482.00;6275533;20;2875270;-47
2024/01/31 05:05:16;;;;;;;;;84.00;60.00;;;;;-3.93;100.00;101489.28;6304841;20;2892994;-49
2024/01/31 05:07:46;;;;;;;;;81.33;57.33;;;;;-3.57;100.00;101491.09;6306291;20;2883635;-46
2024/01/31 05:10:15;;;;;;;;;84.00;57.00;;;;;-3.80;100.00;101494.00;6304355;20;2876317;-48
2024/01/31 05:12:45;;;;;;;;;79.67;58.67;;;;;-3.90;100.00;101493.72;6275602;20;3650248;-47
2024/01/31 05:15:14;;;;;;;;;82.67;59.67;;;;;-3.73;100.00;101483.69;6306190;20;2889955;-51
2024/01/31 05:17:44;;;;;;;;;87.33;63.00;;;;;-3.80;100.00;101482.63;6305710;20;3661728;-49
2024/01/31 05:20:14;;;;;;;;;92.00;61.67;;;;;-3.80;100.00;101486.13;6304773;20;3663882;-49
2024/01/31 05:22:44;;;;;;;;;92.33;63.33;;;;;-4.04;100.00;101494.25;6305241;20;2894015;-50
2024/01/31 05:25:13;;;;;;;;;76.00;58.00;;;;;-4.08;100.00;101496.75;6306436;20;2877330;-47
2024/01/31 05:27:41;;;;;;;;;79.00;57.50;;;;;-3.91;100.00;101495.47;6276300;20;2883633;-51
2024/01/31 05:30:11;;;;;;;;;74.50;57.50;;;;;-4.13;100.00;101488.78;6274437;20;2874238;-51
2024/01/31 05:32:39;;;;;;;;;75.00;54.50;;;;;-4.11;100.00;101481.81;6270369;20;2502411;-50
2024/01/31 05:35:08;;;;;;;;;64.67;49.00;;;;;-3.85;100.00;101485.13;6271934;20;2863967;-50
2024/01/31 05:37:36;;;;;;;;;64.50;51.50;;;;;-3.93;100.00;101486.66;6304883;20;2873231;-52
2024/01/31 05:40:11;;;;;;;;;86.33;57.00;;;;;-4.20;100.00;101481.56;6274552;20;3648303;-49
2024/01/31 05:42:40;;;;;;;;;75.50;58.00;;;;;-4.03;100.00;101480.31;6305186;20;2874287;-51
2024/01/31 05:45:10;;;;;;;;;90.00;65.33;;;;;-4.52;100.00;101486.81;6273171;20;3653438;-47
2024/01/31 05:47:38;;;;;;;;;76.50;58.00;;;;;-4.06;100.00;101480.19;6299562;20;2502385;-51
2024/01/31 05:50:07;;;;;;;;;80.00;59.00;;;;;-3.95;100.00;101483.09;6273956;20;2885734;-48
2024/01/31 05:52:35;;;;;;;;;65.50;50.00;;;;;-4.03;100.00;101479.41;6268814;20;2846215;-49
2024/01/31 05:55:05;;;;;;;;;90.67;66.67;;;;;-3.87;100.00;101489.47;6270427;20;3662844;-51
2024/01/31 05:57:34;;;;;;;;;89.33;66.67;;;;;-4.02;100.00;101487.31;6305021;20;2893041;-47
2024/01/31 06:00:09;;;;;;;;;80.67;57.00;;;;;-4.29;100.00;101481.31;6305765;20;2895319;-52
2024/01/31 06:02:43;;;;;;;;;81.67;60.33;;;;;-4.24;100.00;101485.84;6311275;20;3654430;-49
2024/01/31 06:05:13;;;;;;;;;84.50;60.00;;;;;-4.09;100.00;101480.13;6310757;20;2875287;-46
2024/01/31 06:07:42;;;;;;;;;89.33;63.00;;;;;-3.98;100.00;101483.94;6279403;20;3675304;-47
2024/01/31 06:10:11;;;;;;;;;80.67;63.00;;;;;-3.81;100.00;101479.13;6309650;20;2892035;-46
2024/01/31 06:12:40;;;;;;;;;82.00;63.00;;;;;-4.11;100.00;101486.19;6307263;20;2753561;-47
2024/01/31 06:15:09;;;;;;;;;104.33;74.67;;;;;-4.13;100.00;101486.16;6308801;20;3671136;-50
2024/01/31 06:17:39;;;;;;;;;91.67;62.33;;;;;-3.96;100.00;101481.34;6307572;20;3679437;-48
2024/01/31 06:20:10;;;;;;;;;87.00;63.00;;;;;-4.03;100.00;101484.63;6308455;20;2887909;-47
2024/01/31 06:22:39;;;;;;;;;105.00;75.00;;;;;-3.66;100.00;101482.97;6307765;20;3667042;-48
2024/01/31 06:25:09;;;;;;;;;81.67;61.67;;;;;-3.83;100.00;101485.19;6311635;20;3654481;-46
2024/01/31 06:27:39;;;;;;;;;113.00;84.00;;;;;-4.50;100.00;101486.84;6310648;20;3693008;-46
2024/01/31 06:30:08;;;;;;;;;77.00;58.00;;;;;-4.03;100.00;101489.88;6276917;20;3604483;-49
2024/01/31 06:32:47;;;;;;;;;84.00;59.33;;;;;-3.72;100.00;101490.69;6281950;20;3654608;-49
2024/01/31 06:35:17;;;;;;;;;91.33;66.00;;;;;-3.86;100.00;101493.84;6309162;20;3661730;-48
2024/01/31 06:37:47;;;;;;;;;91.33;70.33;;;;;-3.45;100.00;101490.50;6311037;20;3648255;-49
2024/01/31 06:40:17;;;;;;;;;92.33;61.00;;;;;-3.42;100.00;101494.09;6310032;20;3664879;-49
2024/01/31 06:42:48;;;;;;;;;84.50;63.50;;;;;-3.82;100.00;101487.84;6309124;20;2887801;-50
2024/01/31 06:45:16;;;;;;;;;60.50;51.00;;;;;-3.79;100.00;101493.19;6275950;20;2510753;-49
2024/01/31 06:47:47;;;;;;;;;155.75;119.00;;;;;-4.13;100.00;101488.78;6279732;20;3717030;-49
2024/01/31 06:50:17;;;;;;;;;106.67;72.33;;;;;-3.82;100.00;101500.97;6309331;20;3661720;-49
2024/01/31 06:52:47;;;;;;;;;96.33;63.33;;;;;-3.81;100.00;101501.84;6309410;20;3671081;-49
2024/01/31 06:55:16;;;;;;;;;116.33;88.00;;;;;-3.89;100.00;101499.03;6308054;20;3692038;-49
2024/01/31 06:57:46;;;;;;;;;112.67;78.67;;;;;-3.87;100.00;101502.59;6277216;20;3687745;-48
2024/01/31 07:00:16;;;;;;;;;84.80;59.60;;;;;-3.63;100.00;101497.09;6272500;20;3636779;-47
2024/01/31 07:02:45;;;;;;;;;100.00;74.33;;;;;-3.38;100.00;101506.44;6279072;20;3669020;-51
2024/01/31 07:05:15;;;;;;;;;97.00;71.33;;;;;-3.45;100.00;101501.00;6310068;20;2898375;-48
2024/01/31 07:07:48;;;;;;;;;96.00;68.33;;;;;-3.16;100.00;101502.63;6308799;20;3667002;-48
2024/01/31 07:10:18;;;;;;;;;96.67;69.00;;;;;-3.66;100.00;101494.38;6305889;20;3661769;-47
2024/01/31 07:12:47;;;;;;;;;89.00;68.00;;;;;-2.98;100.00;101491.63;6308808;20;2896133;-45
2024/01/31 07:15:17;;;;;;;;;82.00;57.00;;;;;-2.01;100.00;101488.38;6310149;20;2886083;-51
2024/01/31 07:17:47;;;;;;;;;95.33;67.00;;;;;-3.50;100.00;101482.53;6277104;20;3664831;-49
2024/01/31 07:20:17;;;;;;;;;79.00;63.00;;;;;-2.70;100.00;101487.88;6310059;20;2870069;-48
2024/01/31 07:22:45;;;;;;;;;81.00;60.50;;;;;-1.91;100.00;101487.69;6270949;20;2502425;-48
2024/01/31 07:25:15;;;;;;;;;80.00;60.00;;;;;-2.37;100.00;101491.16;6274349;20;2502355;-49
2024/01/31 07:27:45;;;;;;;;;85.00;60.33;;;;;-2.56;100.00;101485.53;6276936;20;3652342;-48
2024/01/31 07:30:13;;;;;;;;;84.00;63.50;;;;;-2.62;100.00;101484.53;6306760;20;2502344;-51
2024/01/31 07:32:41;;;;;;;;;49.00;46.67;;;;;-2.78;100.00;101492.06;6277940;20;3567468;-46
2024/01/31 07:35:09;;;;;;;;;87.00;63.00;;;;;-2.56;100.00;101492.53;6274945;20;2502511;-49
2024/01/31 07:37:40;;;;;;;;;85.00;62.00;;;;;-2.52;100.00;101492.63;6277073;20;2898369;-48
2024/01/31 07:40:09;;;;;;;;;95.33;66.33;;;;;-2.60;100.00;101496.84;6307730;20;3663831;-49
2024/01/31 07:42:39;;;;;;;;;93.67;66.00;;;;;-2.58;100.00;101500.41;6307091;20;3652509;-52
2024/01/31 07:45:10;;;;;;;;;108.00;78.00;;;;;-2.32;100.00;101502.66;6307111;20;3666941;-45
2024/01/31 07:47:39;;;;;;;;;99.00;74.33;;;;;-2.05;100.00;101500.59;6309055;20;3648336;-46
2024/01/31 07:50:09;;;;;;;;;103.33;74.33;;;;;-2.39;100.00;101498.16;6306519;20;3675287;-46
2024/01/31 07:52:40;;;;;;;;;96.00;67.67;;;;;-2.43;100.00;101503.31;6306951;20;3676929;-48
2024/01/31 07:55:10;;;;;;;;;84.50;66.00;;;;;-1.78;100.00;101496.69;6305491;20;2885729;-47
2024/01/31 07:57:40;;;;;;;;;86.33;64.00;;;;;-1.56;100.00;101500.56;6275747;20;2896232;-46
2024/01/31 08:00:11;;;;;;;;;87.00;66.00;;;;;-1.77;100.00;101499.31;6304790;20;3649261;-49
2024/01/31 08:02:40;;;;;;;;;101.67;71.33;;;;;-1.95;100.00;101498.13;6306505;20;3675310;-45
2024/01/31 08:05:10;;;;;;;;;93.33;69.00;;;;;-1.40;100.00;101499.09;6307005;20;3652401;-46
2024/01/31 08:07:44;;;;;;;;;110.33;77.33;;;;;-1.49;100.00;101502.47;6308203;20;3679448;-49
2024/01/31 08:10:13;;;;;;;;;99.00;77.00;;;;;-1.73;100.00;101500.28;6274792;20;2885810;-51
2024/01/31 08:12:45;;;;;;;;;96.33;72.33;;;;;-1.43;100.00;101496.41;6274110;20;2901456;-48
2024/01/31 08:15:15;;;;;;;;;92.00;69.67;;;;;-1.28;100.00;101488.75;6306229;20;3658713;-50
2024/01/31 08:17:46;;;;;;;;;92.00;69.00;;;;;-1.03;100.00;101491.75;6307727;20;3539832;-47
2024/01/31 08:20:15;;;;;;;;;81.50;64.00;;;;;-1.10;100.00;101496.06;6307165;20;2874268;-50
2024/01/31 08:22:45;;;;;;;;;86.00;65.33;;;;;-0.84;100.00;101490.25;6273839;20;3637764;-49
2024/01/31 08:25:13;;;;;;;;;82.00;61.00;;;;;-0.76;100.00;101507.09;6304397;20;2500251;-48
2024/01/31 08:27:42;;;;;;;;;90.33;64.33;;;;;-0.69;100.00;101493.13;6275421;20;3654427;-49
2024/01/31 08:30:13;;;;;;;;;85.00;62.67;;;;;-0.71;100.00;101498.41;6308645;20;3638924;-47
2024/01/31 08:32:43;;;;;;;;;80.67;54.33;;;;;-0.96;100.00;101491.00;6307505;20;2887772;-46
2024/01/31 08:35:12;;;;;;;;;90.00;66.33;;;;;-0.62;100.00;101489.72;6308807;20;3656615;-46
2024/01/31 08:37:40;;;;;;;;;80.00;59.00;;;;;-0.55;100.00;101488.94;6304075;20;2500483;-46
2024/01/31 08:40:10;;;;;;;;;90.33;64.33;;;;;-0.63;100.00;101484.41;6275029;20;3659661;-47
2024/01/31 08:42:42;;;;;;;;;89.00;65.67;;;;;-0.29;100.00;101486.63;6307737;20;3652499;-47
2024/01/31 08:45:13;;;;;;;;;101.33;73.00;;;;;-0.29;100.00;101476.06;6305394;20;3679455;-48
2024/01/31 08:47:44;;;;;;;;;102.33;73.00;;;;;-0.38;100.00;101475.94;6306899;20;3666939;-48
2024/01/31 08:50:14;;;;;;;;;94.00;68.00;;;;;-0.02;100.00;101471.94;6307115;20;3664917;-48
2024/01/31 08:52:45;;;;;;;;;190.50;153.00;;;;;-0.57;100.00;101471.31;6306652;20;4480424;-49
2024/01/31 08:55:14;;;;;;;;;97.00;74.00;;;;;-0.85;100.00;101473.56;6308550;20;3662766;-47
2024/01/31 08:57:44;;;;;;;;;87.00;66.00;;;;;0.31;100.00;101483.69;6309874;20;3660729;-51
2024/01/31 09:00:15;;;;;;;;;92.33;69.00;;;;;-1.03;100.00;101478.56;6307321;20;3657556;-51
2024/01/31 09:02:44;;;;;;;;;93.33;69.33;;;;;-0.83;100.00;101485.03;6309470;20;3647181;-50
2024/01/31 09:05:14;;;;;;;;;92.00;65.33;;;;;-0.35;100.00;101486.53;6306922;20;3660745;-51
2024/01/31 09:07:44;;;;;;;;;109.33;75.67;;;;;0.31;100.00;101491.63;6307103;20;3686707;-49
2024/01/31 09:10:14;;;;;;;;;102.00;74.33;;;;;1.12;100.00;101488.75;6274905;20;3671112;-49
2024/01/31 09:12:44;;;;;;;;;96.67;71.00;;;;;0.87;100.00;101486.81;6270348;20;3659606;-51
2024/01/31 09:15:13;;;;;;;;;98.67;73.33;;;;;0.92;100.00;101478.91;6307928;20;3667938;-50
2024/01/31 09:17:43;;;;;;;;;132.33;107.00;;;;;0.75;100.00;101475.28;6273286;20;3704443;-48
2024/01/31 09:20:14;;;;;;;;;101.67;78.33;;;;;1.52;100.00;101481.91;6273157;20;3687818;-46
2024/01/31 09:22:44;;;;;;;;;113.00;94.33;;;;;1.35;100.00;101473.88;6273404;20;3692972;-50
2024/01/31 09:25:15;;;;;;;;;114.00;90.50;;;;;0.92;100.00;101478.91;6274297;20;3572092;-51
2024/01/31 09:27:44;;;;;;;;;104.67;83.33;;;;;0.81;100.00;101480.59;6304988;20;3691917;-49
2024/01/31 09:30:14;;;;;;;;;104.00;94.00;;;;;1.80;100.00;101484.66;6275677;20;3669402;-50
2024/01/31 09:32:45;;;;;;;;;133.75;112.25;;;;;1.60;100.00;101474.00;6306180;20;4497202;-49
2024/01/31 09:35:16;;;;;;;;;134.25;116.00;;;;;2.08;100.00;101477.66;6271788;20;3722208;-47
2024/01/31 09:37:46;;;;;;;;;106.00;90.33;;;;;1.27;100.00;101471.19;6307609;20;3697149;-49
2024/01/31 09:40:19;;;;;;;;;150.80;122.60;;;;;1.80;100.00;101468.78;6272155;20;4507556;-52
2024/01/31 09:42:53;;;;;;;;;140.67;122.67;;;;;1.65;100.00;101474.88;6304527;20;3722262;-51
2024/01/31 09:45:23;;;;;;;;;113.67;95.67;;;;;2.36;100.00;101474.16;6271089;20;3688152;-48
2024/01/31 09:47:57;;;;;;;;;113.33;92.67;;;;;1.44;100.00;101460.69;6273791;20;3685672;-48
2024/01/31 09:50:28;;;;;;;;;126.25;100.75;;;;;1.96;100.00;101447.63;6272335;20;3712740;-51
2024/01/31 09:53:03;;;;;;;;;125.33;103.00;;;;;2.23;100.00;101452.97;6271436;20;3716956;-51
2024/01/31 09:55:35;;;;;;;;;129.33;106.00;;;;;2.51;100.00;101444.16;6274129;20;3709624;-48
2024/01/31 09:58:05;;;;;;;;;113.00;93.00;;;;;2.20;100.00;101441.47;6271296;20;3691921;-50
2024/01/31 10:00:37;;;;;;;;;102.00;85.33;;;;;3.29;100.00;101444.00;6274705;20;3676280;-51
2024/01/31 10:03:09;;;;;;;;;142.75;120.25;;;;;2.45;100.00;101443.25;6275425;20;4501262;-51
2024/01/31 10:05:39;;;;;;;;;118.67;103.67;;;;;3.21;100.00;101435.19;6270834;20;3696247;-54
2024/01/31 10:08:10;;;;;;;;;119.50;102.75;;;;;2.72;100.00;101431.75;6275148;20;3711881;-51
2024/01/31 10:10:41;;;;;;;;;127.25;104.00;;;;;2.36;100.00;101433.53;6307597;20;3719038;-52
2024/01/31 10:13:12;;;;;;;;;104.33;83.33;;;;;2.72;100.00;101423.81;6272288;20;3702381;-49
2024/01/31 10:15:42;;;;;;;;;113.00;94.67;;;;;3.38;100.00;101431.59;6275011;20;3677358;-51
2024/01/31 10:18:12;;;;;;;;;97.33;78.00;;;;;3.91;100.00;101425.13;6268415;20;3668694;-53
2024/01/31 10:20:45;;;;;;;;;107.67;91.00;;;;;2.83;100.00;101412.28;6270638;20;3694036;-48
2024/01/31 10:23:15;;;;;;;;;96.00;76.00;;;;;2.92;100.00;101421.09;6275592;20;3676747;-50
2024/01/31 10:25:44;;;;;;;;;95.00;73.00;;;;;3.30;100.00;101421.88;6270576;20;3674203;-49
2024/01/31 10:28:18;;;;;;;;;108.67;87.00;;;;;3.45;100.00;101417.38;6305996;20;3682565;-47
2024/01/31 10:30:48;;;;;;;;;100.00;86.00;;;;;2.78;100.00;101403.44;6271907;20;3682735;-47
2024/01/31 10:33:20;;;;;;;;;106.67;95.00;;;;;3.15;100.00;101408.66;6274681;20;3680480;-50
2024/01/31 10:35:51;;;;;;;;;87.33;66.67;;;;;4.19;100.00;101401.91;6271632;20;3649263;-52
2024/01/31 10:38:40;;;;;;;;;91.67;70.67;;;;;4.50;100.00;101402.53;6303958;20;3659652;-53
2024/01/31 10:41:13;;;;;;;;;87.00;65.33;;;;;4.10;100.00;101394.84;6266824;20;2882607;-48
2024/01/31 10:43:43;;;;;;;;;87.33;68.33;;;;;3.65;100.00;101388.94;6302028;20;3638829;-48
2024/01/31 10:46:13;;;;;;;;;88.67;67.00;;;;;3.87;100.00;101384.41;6305159;20;3652472;-48
2024/01/31 10:48:43;;;;;;;;;81.67;63.00;;;;;4.47;100.00;101391.91;6308869;20;3632600;-47
2024/01/31 10:51:14;;;;;;;;;83.67;62.33;;;;;3.89;100.00;101381.72;6308855;20;3656530;-43
2024/01/31 10:53:55;;;;;;;;;91.67;68.33;;;;;3.97;100.00;101374.56;6306842;20;3659684;-44
2024/01/31 10:56:26;;;;;;;;;84.67;65.00;;;;;4.21;100.00;101381.47;6307900;20;3643990;-45